sensor_id;sensor_type;location;lat;lon;timestamp;P1;durP1;ratioP1;P2;durP2;ratioP2
37485;SDS011;23341;50.296;18.960;2024-03-23T00:52:06;47.90;;;29.55;;
37485;SDS011;23341;50.296;18.960;2024-03-23T00:54:33;49.50;;;28.08;;
37485;SDS011;23341;50.296;18.960;2024-03-23T00:57:00;43.60;;;27.80;;
37485;SDS011;23341;50.296;18.960;2024-03-23T00:59:27;48.50;;;29.40;;
37485;SDS011;23341;50.296;18.960;2024-03-23T01:01:54;54.33;;;29.48;;
37485;SDS011;23341;50.296;18.960;2024-03-23T01:04:20;50.03;;;31.08;;
37485;SDS011;23341;50.296;18.960;2024-03-23T01:06:47;49.97;;;30.33;;
37485;SDS011;23341;50.296;18.960;2024-03-23T01:09:15;56.47;;;32.67;;
37485;SDS011;23341;50.296;18.960;2024-03-23T01:11:42;51.55;;;30.98;;
37485;SDS011;23341;50.296;18.960;2024-03-23T01:14:09;55.00;;;29.48;;
37485;SDS011;23341;50.296;18.960;2024-03-23T01:16:36;51.75;;;30.60;;
37485;SDS011;23341;50.296;18.960;2024-03-23T01:19:03;66.53;;;37.80;;
37485;SDS011;23341;50.296;18.960;2024-03-23T01:21:31;55.30;;;32.00;;
37485;SDS011;23341;50.296;18.960;2024-03-23T01:23:57;43.20;;;26.42;;
37485;SDS011;23341;50.296;18.960;2024-03-23T01:26:26;51.85;;;28.13;;
37485;SDS011;23341;50.296;18.960;2024-03-23T01:28:53;47.63;;;28.30;;
37485;SDS011;23341;50.296;18.960;2024-03-23T01:31:20;44.97;;;27.42;;
37485;SDS011;23341;50.296;18.960;2024-03-23T01:33:47;47.58;;;27.13;;
37485;SDS011;23341;50.296;18.960;2024-03-23T01:36:14;45.90;;;25.80;;
37485;SDS011;23341;50.296;18.960;2024-03-23T01:38:41;47.80;;;26.77;;
37485;SDS011;23341;50.296;18.960;2024-03-23T01:41:08;48.10;;;26.65;;
37485;SDS011;23341;50.296;18.960;2024-03-23T01:43:36;45.88;;;27.90;;
37485;SDS011;23341;50.296;18.960;2024-03-23T01:46:03;49.95;;;28.30;;
37485;SDS011;23341;50.296;18.960;2024-03-23T01:48:29;49.47;;;29.13;;
37485;SDS011;23341;50.296;18.960;2024-03-23T01:50:57;46.85;;;25.90;;
37485;SDS011;23341;50.296;18.960;2024-03-23T01:53:24;50.92;;;28.48;;
37485;SDS011;23341;50.296;18.960;2024-03-23T01:55:52;49.30;;;29.42;;
37485;SDS011;23341;50.296;18.960;2024-03-23T01:58:18;47.58;;;28.95;;
37485;SDS011;23341;50.296;18.960;2024-03-23T02:00:47;53.08;;;29.77;;
37485;SDS011;23341;50.296;18.960;2024-03-23T02:03:22;47.45;;;29.27;;
37485;SDS011;23341;50.296;18.960;2024-03-23T02:05:50;50.08;;;28.83;;
37485;SDS011;23341;50.296;18.960;2024-03-23T02:08:18;51.42;;;28.08;;
37485;SDS011;23341;50.296;18.960;2024-03-23T02:10:47;47.72;;;27.60;;
37485;SDS011;23341;50.296;18.960;2024-03-23T02:13:14;49.50;;;27.95;;
37485;SDS011;23341;50.296;18.960;2024-03-23T02:15:41;51.45;;;28.90;;
37485;SDS011;23341;50.296;18.960;2024-03-23T02:18:10;50.38;;;28.30;;
37485;SDS011;23341;50.296;18.960;2024-03-23T02:20:37;51.83;;;30.25;;
37485;SDS011;23341;50.296;18.960;2024-03-23T02:23:05;48.60;;;29.05;;
37485;SDS011;23341;50.296;18.960;2024-03-23T02:25:39;49.75;;;28.45;;
37485;SDS011;23341;50.296;18.960;2024-03-23T02:28:05;52.70;;;31.00;;
37485;SDS011;23341;50.296;18.960;2024-03-23T02:30:33;53.47;;;29.40;;
37485;SDS011;23341;50.296;18.960;2024-03-23T02:33:00;53.75;;;31.10;;
37485;SDS011;23341;50.296;18.960;2024-03-23T02:35:27;51.58;;;31.17;;
37485;SDS011;23341;50.296;18.960;2024-03-23T02:37:53;52.13;;;29.00;;
37485;SDS011;23341;50.296;18.960;2024-03-23T02:40:24;50.13;;;30.73;;
37485;SDS011;23341;50.296;18.960;2024-03-23T02:42:50;53.72;;;31.17;;
37485;SDS011;23341;50.296;18.960;2024-03-23T02:45:18;53.88;;;29.45;;
37485;SDS011;23341;50.296;18.960;2024-03-23T02:47:44;49.65;;;30.23;;
37485;SDS011;23341;50.296;18.960;2024-03-23T02:50:11;51.70;;;30.17;;
37485;SDS011;23341;50.296;18.960;2024-03-23T02:52:38;44.92;;;27.95;;
37485;SDS011;23341;50.296;18.960;2024-03-23T02:55:05;51.17;;;28.88;;
37485;SDS011;23341;50.296;18.960;2024-03-23T02:57:33;50.28;;;29.83;;
37485;SDS011;23341;50.296;18.960;2024-03-23T03:00:00;54.90;;;30.90;;
37485;SDS011;23341;50.296;18.960;2024-03-23T03:02:27;51.30;;;30.02;;
37485;SDS011;23341;50.296;18.960;2024-03-23T03:04:54;52.15;;;31.65;;
37485;SDS011;23341;50.296;18.960;2024-03-23T03:07:21;49.67;;;30.52;;
37485;SDS011;23341;50.296;18.960;2024-03-23T03:09:48;54.38;;;29.98;;
37485;SDS011;23341;50.296;18.960;2024-03-23T03:12:15;53.22;;;29.85;;
37485;SDS011;23341;50.296;18.960;2024-03-23T03:14:43;48.38;;;30.55;;
37485;SDS011;23341;50.296;18.960;2024-03-23T03:17:10;47.72;;;29.50;;
37485;SDS011;23341;50.296;18.960;2024-03-23T03:19:37;47.95;;;28.45;;
37485;SDS011;23341;50.296;18.960;2024-03-23T03:22:04;44.40;;;26.85;;
37485;SDS011;23341;50.296;18.960;2024-03-23T03:24:31;49.55;;;29.58;;
37485;SDS011;23341;50.296;18.960;2024-03-23T03:26:58;49.50;;;29.08;;
37485;SDS011;23341;50.296;18.960;2024-03-23T03:29:25;47.45;;;28.75;;
37485;SDS011;23341;50.296;18.960;2024-03-23T03:32:01;47.15;;;28.85;;
37485;SDS011;23341;50.296;18.960;2024-03-23T03:34:28;48.53;;;30.08;;
37485;SDS011;23341;50.296;18.960;2024-03-23T03:36:56;45.42;;;27.83;;
37485;SDS011;23341;50.296;18.960;2024-03-23T03:39:22;50.22;;;30.88;;
37485;SDS011;23341;50.296;18.960;2024-03-23T03:41:50;49.95;;;30.67;;
37485;SDS011;23341;50.296;18.960;2024-03-23T03:44:16;55.78;;;33.47;;
37485;SDS011;23341;50.296;18.960;2024-03-23T03:46:44;50.55;;;30.58;;
37485;SDS011;23341;50.296;18.960;2024-03-23T03:49:11;55.15;;;33.00;;
37485;SDS011;23341;50.296;18.960;2024-03-23T03:51:39;49.47;;;31.02;;
37485;SDS011;23341;50.296;18.960;2024-03-23T03:54:05;50.72;;;31.40;;
37485;SDS011;23341;50.296;18.960;2024-03-23T03:56:32;49.30;;;29.13;;
37485;SDS011;23341;50.296;18.960;2024-03-23T03:58:59;47.17;;;30.02;;
37485;SDS011;23341;50.296;18.960;2024-03-23T04:01:26;45.38;;;28.42;;
37485;SDS011;23341;50.296;18.960;2024-03-23T04:03:52;48.58;;;29.67;;
37485;SDS011;23341;50.296;18.960;2024-03-23T04:06:21;54.10;;;32.05;;
37485;SDS011;23341;50.296;18.960;2024-03-23T04:08:47;50.22;;;31.85;;
37485;SDS011;23341;50.296;18.960;2024-03-23T04:11:15;47.70;;;30.23;;
37485;SDS011;23341;50.296;18.960;2024-03-23T04:13:41;50.08;;;30.17;;
37485;SDS011;23341;50.296;18.960;2024-03-23T04:16:08;56.00;;;31.15;;
37485;SDS011;23341;50.296;18.960;2024-03-23T04:18:35;51.13;;;31.08;;
37485;SDS011;23341;50.296;18.960;2024-03-23T04:21:02;62.72;;;36.75;;
37485;SDS011;23341;50.296;18.960;2024-03-23T04:23:30;58.80;;;36.08;;
37485;SDS011;23341;50.296;18.960;2024-03-23T04:26:02;52.63;;;34.30;;
37485;SDS011;23341;50.296;18.960;2024-03-23T04:28:29;56.13;;;34.85;;
37485;SDS011;23341;50.296;18.960;2024-03-23T04:30:56;62.85;;;34.17;;
37485;SDS011;23341;50.296;18.960;2024-03-23T04:33:23;53.15;;;32.75;;
37485;SDS011;23341;50.296;18.960;2024-03-23T04:35:50;54.90;;;33.95;;
37485;SDS011;23341;50.296;18.960;2024-03-23T04:38:17;50.70;;;32.85;;
37485;SDS011;23341;50.296;18.960;2024-03-23T04:40:47;57.75;;;33.33;;
37485;SDS011;23341;50.296;18.960;2024-03-23T04:43:21;47.90;;;28.20;;
37485;SDS011;23341;50.296;18.960;2024-03-23T04:45:48;47.95;;;28.20;;
37485;SDS011;23341;50.296;18.960;2024-03-23T04:48:16;48.25;;;29.58;;
37485;SDS011;23341;50.296;18.960;2024-03-23T04:50:43;45.50;;;27.80;;
37485;SDS011;23341;50.296;18.960;2024-03-23T04:53:10;44.90;;;28.88;;
37485;SDS011;23341;50.296;18.960;2024-03-23T04:55:37;47.17;;;28.00;;
37485;SDS011;23341;50.296;18.960;2024-03-23T04:58:05;46.72;;;29.42;;
37485;SDS011;23341;50.296;18.960;2024-03-23T05:00:32;51.40;;;28.52;;
37485;SDS011;23341;50.296;18.960;2024-03-23T05:02:59;46.55;;;28.88;;
37485;SDS011;23341;50.296;18.960;2024-03-23T05:05:26;47.38;;;28.35;;
37485;SDS011;23341;50.296;18.960;2024-03-23T05:07:53;41.42;;;25.48;;
37485;SDS011;23341;50.296;18.960;2024-03-23T05:10:20;33.97;;;23.00;;
37485;SDS011;23341;50.296;18.960;2024-03-23T05:12:47;39.95;;;25.67;;
37485;SDS011;23341;50.296;18.960;2024-03-23T05:15:15;38.20;;;23.88;;
37485;SDS011;23341;50.296;18.960;2024-03-23T05:17:42;33.17;;;22.42;;
37485;SDS011;23341;50.296;18.960;2024-03-23T05:20:09;30.90;;;21.65;;
37485;SDS011;23341;50.296;18.960;2024-03-23T05:22:38;37.55;;;21.38;;
37485;SDS011;23341;50.296;18.960;2024-03-23T05:25:04;33.85;;;22.70;;
37485;SDS011;23341;50.296;18.960;2024-03-23T05:27:33;33.38;;;21.13;;
37485;SDS011;23341;50.296;18.960;2024-03-23T05:29:59;29.50;;;21.75;;
37485;SDS011;23341;50.296;18.960;2024-03-23T05:32:28;30.55;;;19.80;;
37485;SDS011;23341;50.296;18.960;2024-03-23T05:34:54;29.77;;;19.05;;
37485;SDS011;23341;50.296;18.960;2024-03-23T05:37:22;33.75;;;21.20;;
37485;SDS011;23341;50.296;18.960;2024-03-23T05:39:49;29.52;;;19.30;;
37485;SDS011;23341;50.296;18.960;2024-03-23T05:42:16;29.52;;;18.23;;
37485;SDS011;23341;50.296;18.960;2024-03-23T05:44:43;29.88;;;18.30;;
37485;SDS011;23341;50.296;18.960;2024-03-23T05:47:12;29.77;;;19.52;;
37485;SDS011;23341;50.296;18.960;2024-03-23T05:49:41;29.08;;;18.38;;
37485;SDS011;23341;50.296;18.960;2024-03-23T05:52:09;25.15;;;17.60;;
37485;SDS011;23341;50.296;18.960;2024-03-23T05:54:36;27.40;;;19.20;;
37485;SDS011;23341;50.296;18.960;2024-03-23T05:57:03;29.13;;;19.17;;
37485;SDS011;23341;50.296;18.960;2024-03-23T05:59:30;28.70;;;19.75;;
37485;SDS011;23341;50.296;18.960;2024-03-23T06:01:58;25.90;;;18.30;;
37485;SDS011;23341;50.296;18.960;2024-03-23T06:04:24;28.13;;;18.02;;
37485;SDS011;23341;50.296;18.960;2024-03-23T06:06:53;29.73;;;19.88;;
37485;SDS011;23341;50.296;18.960;2024-03-23T06:09:20;28.10;;;18.48;;
37485;SDS011;23341;50.296;18.960;2024-03-23T06:11:48;26.80;;;19.20;;
37485;SDS011;23341;50.296;18.960;2024-03-23T06:14:15;24.75;;;19.00;;
37485;SDS011;23341;50.296;18.960;2024-03-23T06:16:42;28.92;;;21.20;;
37485;SDS011;23341;50.296;18.960;2024-03-23T06:19:08;26.75;;;18.75;;
37485;SDS011;23341;50.296;18.960;2024-03-23T06:21:36;26.77;;;19.10;;
37485;SDS011;23341;50.296;18.960;2024-03-23T06:24:04;28.05;;;18.63;;
37485;SDS011;23341;50.296;18.960;2024-03-23T06:26:32;21.40;;;16.35;;
37485;SDS011;23341;50.296;18.960;2024-03-23T06:29:01;26.63;;;16.95;;
37485;SDS011;23341;50.296;18.960;2024-03-23T06:31:30;20.77;;;15.27;;
37485;SDS011;23341;50.296;18.960;2024-03-23T06:33:57;23.17;;;15.75;;
37485;SDS011;23341;50.296;18.960;2024-03-23T06:36:24;18.10;;;14.98;;
37485;SDS011;23341;50.296;18.960;2024-03-23T06:38:51;21.63;;;15.68;;
37485;SDS011;23341;50.296;18.960;2024-03-23T06:41:20;18.73;;;14.70;;
37485;SDS011;23341;50.296;18.960;2024-03-23T06:43:46;19.90;;;15.40;;
37485;SDS011;23341;50.296;18.960;2024-03-23T06:46:13;18.30;;;13.93;;
37485;SDS011;23341;50.296;18.960;2024-03-23T06:48:40;18.92;;;14.35;;
37485;SDS011;23341;50.296;18.960;2024-03-23T06:51:07;21.65;;;14.00;;
37485;SDS011;23341;50.296;18.960;2024-03-23T06:53:35;17.40;;;14.18;;
37485;SDS011;23341;50.296;18.960;2024-03-23T06:56:02;21.08;;;13.80;;
37485;SDS011;23341;50.296;18.960;2024-03-23T06:58:30;20.30;;;14.57;;
37485;SDS011;23341;50.296;18.960;2024-03-23T07:01:00;19.73;;;14.30;;
37485;SDS011;23341;50.296;18.960;2024-03-23T07:03:26;18.23;;;13.23;;
37485;SDS011;23341;50.296;18.960;2024-03-23T07:05:57;16.98;;;12.98;;
37485;SDS011;23341;50.296;18.960;2024-03-23T07:08:24;17.25;;;13.73;;
37485;SDS011;23341;50.296;18.960;2024-03-23T07:10:51;17.80;;;13.13;;
37485;SDS011;23341;50.296;18.960;2024-03-23T07:13:18;18.80;;;13.63;;
37485;SDS011;23341;50.296;18.960;2024-03-23T07:15:52;15.88;;;12.43;;
37485;SDS011;23341;50.296;18.960;2024-03-23T07:18:18;18.25;;;14.38;;
37485;SDS011;23341;50.296;18.960;2024-03-23T07:20:51;20.85;;;15.00;;
37485;SDS011;23341;50.296;18.960;2024-03-23T07:23:18;19.73;;;12.95;;
37485;SDS011;23341;50.296;18.960;2024-03-23T07:25:55;19.10;;;14.48;;
37485;SDS011;23341;50.296;18.960;2024-03-23T07:28:22;19.00;;;14.43;;
37485;SDS011;23341;50.296;18.960;2024-03-23T07:31:01;21.95;;;15.25;;
37485;SDS011;23341;50.296;18.960;2024-03-23T07:33:30;18.02;;;13.27;;
37485;SDS011;23341;50.296;18.960;2024-03-23T07:35:58;21.17;;;13.50;;
37485;SDS011;23341;50.296;18.960;2024-03-23T07:38:26;22.75;;;13.65;;
37485;SDS011;23341;50.296;18.960;2024-03-23T07:41:02;20.33;;;14.55;;
37485;SDS011;23341;50.296;18.960;2024-03-23T07:43:31;15.35;;;13.25;;
37485;SDS011;23341;50.296;18.960;2024-03-23T07:45:57;18.65;;;13.55;;
37485;SDS011;23341;50.296;18.960;2024-03-23T07:48:27;21.40;;;14.10;;
37485;SDS011;23341;50.296;18.960;2024-03-23T07:51:00;18.85;;;14.38;;
37485;SDS011;23341;50.296;18.960;2024-03-23T07:53:29;19.38;;;13.93;;
37485;SDS011;23341;50.296;18.960;2024-03-23T07:55:56;15.05;;;12.75;;
37485;SDS011;23341;50.296;18.960;2024-03-23T07:58:25;14.93;;;12.55;;
37485;SDS011;23341;50.296;18.960;2024-03-23T08:00:52;15.85;;;12.27;;
37485;SDS011;23341;50.296;18.960;2024-03-23T08:03:19;18.65;;;13.50;;
37485;SDS011;23341;50.296;18.960;2024-03-23T08:05:47;16.80;;;12.45;;
37485;SDS011;23341;50.296;18.960;2024-03-23T08:08:15;16.95;;;12.00;;
37485;SDS011;23341;50.296;18.960;2024-03-23T08:10:48;15.10;;;12.00;;
37485;SDS011;23341;50.296;18.960;2024-03-23T08:13:16;14.90;;;12.32;;
37485;SDS011;23341;50.296;18.960;2024-03-23T08:15:43;16.70;;;11.80;;
37485;SDS011;23341;50.296;18.960;2024-03-23T08:18:11;19.40;;;12.40;;
37485;SDS011;23341;50.296;18.960;2024-03-23T08:20:37;13.93;;;10.52;;
37485;SDS011;23341;50.296;18.960;2024-03-23T08:23:07;17.40;;;11.48;;
37485;SDS011;23341;50.296;18.960;2024-03-23T08:25:34;13.10;;;10.30;;
37485;SDS011;23341;50.296;18.960;2024-03-23T08:28:01;10.63;;;9.00;;
37485;SDS011;23341;50.296;18.960;2024-03-23T08:30:28;11.90;;;9.68;;
37485;SDS011;23341;50.296;18.960;2024-03-23T08:32:55;12.02;;;9.65;;
37485;SDS011;23341;50.296;18.960;2024-03-23T08:35:21;14.30;;;9.27;;
37485;SDS011;23341;50.296;18.960;2024-03-23T08:37:49;14.00;;;10.30;;
37485;SDS011;23341;50.296;18.960;2024-03-23T08:40:17;11.18;;;9.48;;
37485;SDS011;23341;50.296;18.960;2024-03-23T08:42:45;10.13;;;9.13;;
37485;SDS011;23341;50.296;18.960;2024-03-23T08:45:11;14.60;;;8.75;;
37485;SDS011;23341;50.296;18.960;2024-03-23T08:47:38;9.93;;;7.72;;
37485;SDS011;23341;50.296;18.960;2024-03-23T08:50:05;11.40;;;9.15;;
37485;SDS011;23341;50.296;18.960;2024-03-23T08:52:33;10.23;;;8.43;;
37485;SDS011;23341;50.296;18.960;2024-03-23T08:54:59;9.73;;;8.65;;
37485;SDS011;23341;50.296;18.960;2024-03-23T08:57:28;10.50;;;8.02;;
37485;SDS011;23341;50.296;18.960;2024-03-23T08:59:55;10.27;;;8.45;;
37485;SDS011;23341;50.296;18.960;2024-03-23T09:02:22;12.73;;;9.45;;
37485;SDS011;23341;50.296;18.960;2024-03-23T09:04:49;14.55;;;9.38;;
37485;SDS011;23341;50.296;18.960;2024-03-23T09:07:16;11.35;;;7.88;;
37485;SDS011;23341;50.296;18.960;2024-03-23T09:09:42;9.93;;;8.43;;
37485;SDS011;23341;50.296;18.960;2024-03-23T09:12:10;9.75;;;8.07;;
37485;SDS011;23341;50.296;18.960;2024-03-23T09:14:37;9.90;;;8.18;;
37485;SDS011;23341;50.296;18.960;2024-03-23T09:17:05;13.75;;;9.50;;
37485;SDS011;23341;50.296;18.960;2024-03-23T09:19:32;9.77;;;8.65;;
37485;SDS011;23341;50.296;18.960;2024-03-23T09:21:59;8.75;;;7.28;;
37485;SDS011;23341;50.296;18.960;2024-03-23T09:24:25;14.80;;;9.00;;
37485;SDS011;23341;50.296;18.960;2024-03-23T09:26:53;11.13;;;8.32;;
37485;SDS011;23341;50.296;18.960;2024-03-23T09:29:19;9.20;;;7.07;;
37485;SDS011;23341;50.296;18.960;2024-03-23T09:31:48;9.55;;;7.60;;
37485;SDS011;23341;50.296;18.960;2024-03-23T09:34:14;8.75;;;7.15;;
37485;SDS011;23341;50.296;18.960;2024-03-23T09:36:42;9.18;;;7.55;;
37485;SDS011;23341;50.296;18.960;2024-03-23T09:39:08;9.32;;;8.07;;
37485;SDS011;23341;50.296;18.960;2024-03-23T09:41:36;9.82;;;7.68;;
37485;SDS011;23341;50.296;18.960;2024-03-23T09:44:02;8.82;;;7.15;;
37485;SDS011;23341;50.296;18.960;2024-03-23T09:46:30;12.52;;;7.30;;
37485;SDS011;23341;50.296;18.960;2024-03-23T09:49:01;8.00;;;6.50;;
37485;SDS011;23341;50.296;18.960;2024-03-23T09:51:30;13.27;;;10.07;;
37485;SDS011;23341;50.296;18.960;2024-03-23T09:53:56;10.57;;;7.60;;
37485;SDS011;23341;50.296;18.960;2024-03-23T09:56:24;9.95;;;7.55;;
37485;SDS011;23341;50.296;18.960;2024-03-23T09:58:50;8.57;;;6.28;;
37485;SDS011;23341;50.296;18.960;2024-03-23T10:01:18;8.07;;;7.28;;
37485;SDS011;23341;50.296;18.960;2024-03-23T10:03:45;9.80;;;7.13;;
37485;SDS011;23341;50.296;18.960;2024-03-23T10:06:14;8.95;;;7.90;;
37485;SDS011;23341;50.296;18.960;2024-03-23T10:08:46;8.30;;;6.53;;
37485;SDS011;23341;50.296;18.960;2024-03-23T10:11:15;11.50;;;8.07;;
37485;SDS011;23341;50.296;18.960;2024-03-23T10:13:42;10.10;;;7.63;;
37485;SDS011;23341;50.296;18.960;2024-03-23T10:18:46;8.95;;;7.60;;
37485;SDS011;23341;50.296;18.960;2024-03-23T10:21:15;8.55;;;6.82;;
37485;SDS011;23341;50.296;18.960;2024-03-23T10:23:42;7.88;;;7.03;;
37485;SDS011;23341;50.296;18.960;2024-03-23T10:26:15;8.35;;;7.10;;
37485;SDS011;23341;50.296;18.960;2024-03-23T10:28:50;7.60;;;5.88;;
37485;SDS011;23341;50.296;18.960;2024-03-23T10:31:22;6.90;;;6.30;;
37485;SDS011;23341;50.296;18.960;2024-03-23T10:33:49;8.40;;;6.78;;
37485;SDS011;23341;50.296;18.960;2024-03-23T10:38:46;9.25;;;6.95;;
37485;SDS011;23341;50.296;18.960;2024-03-23T10:41:16;9.25;;;6.78;;
37485;SDS011;23341;50.296;18.960;2024-03-23T10:43:44;7.13;;;5.93;;
37485;SDS011;23341;50.296;18.960;2024-03-23T10:46:13;7.45;;;5.65;;
37485;SDS011;23341;50.296;18.960;2024-03-23T10:48:39;11.10;;;5.82;;
37485;SDS011;23341;50.296;18.960;2024-03-23T10:51:07;9.43;;;5.80;;
37485;SDS011;23341;50.296;18.960;2024-03-23T10:53:36;7.30;;;6.22;;
37485;SDS011;23341;50.296;18.960;2024-03-23T10:56:04;8.95;;;7.32;;
37485;SDS011;23341;50.296;18.960;2024-03-23T10:58:33;8.90;;;6.10;;
37485;SDS011;23341;50.296;18.960;2024-03-23T11:01:05;9.30;;;6.55;;
37485;SDS011;23341;50.296;18.960;2024-03-23T11:03:34;6.88;;;5.95;;
37485;SDS011;23341;50.296;18.960;2024-03-23T11:06:03;9.50;;;6.10;;
37485;SDS011;23341;50.296;18.960;2024-03-23T11:08:31;9.85;;;6.50;;
37485;SDS011;23341;50.296;18.960;2024-03-23T11:13:44;8.20;;;5.90;;
37485;SDS011;23341;50.296;18.960;2024-03-23T11:16:15;9.63;;;4.35;;
37485;SDS011;23341;50.296;18.960;2024-03-23T11:18:42;8.18;;;5.28;;
37485;SDS011;23341;50.296;18.960;2024-03-23T11:21:11;8.52;;;4.72;;
37485;SDS011;23341;50.296;18.960;2024-03-23T11:24:17;5.50;;;5.00;;
37485;SDS011;23341;50.296;18.960;2024-03-23T11:26:48;6.60;;;3.78;;
37485;SDS011;23341;50.296;18.960;2024-03-23T11:29:14;4.78;;;3.97;;
37485;SDS011;23341;50.296;18.960;2024-03-23T11:31:47;6.28;;;4.53;;
37485;SDS011;23341;50.296;18.960;2024-03-23T11:34:13;4.82;;;4.03;;
37485;SDS011;23341;50.296;18.960;2024-03-23T11:36:42;4.83;;;4.10;;
37485;SDS011;23341;50.296;18.960;2024-03-23T11:39:12;4.32;;;3.70;;
37485;SDS011;23341;50.296;18.960;2024-03-23T11:41:45;5.68;;;3.70;;
37485;SDS011;23341;50.296;18.960;2024-03-23T11:44:15;5.38;;;4.55;;
37485;SDS011;23341;50.296;18.960;2024-03-23T11:46:43;7.07;;;3.67;;
37485;SDS011;23341;50.296;18.960;2024-03-23T11:49:19;4.07;;;3.53;;
37485;SDS011;23341;50.296;18.960;2024-03-23T11:51:49;5.82;;;2.90;;
37485;SDS011;23341;50.296;18.960;2024-03-23T11:54:15;6.20;;;3.08;;
37485;SDS011;23341;50.296;18.960;2024-03-23T11:56:55;4.80;;;3.38;;
37485;SDS011;23341;50.296;18.960;2024-03-23T11:59:31;4.50;;;3.60;;
37485;SDS011;23341;50.296;18.960;2024-03-23T12:02:06;5.97;;;3.50;;
37485;SDS011;23341;50.296;18.960;2024-03-23T12:04:33;6.57;;;4.65;;
37485;SDS011;23341;50.296;18.960;2024-03-23T12:07:12;5.00;;;3.15;;
37485;SDS011;23341;50.296;18.960;2024-03-23T12:09:39;7.43;;;3.17;;
37485;SDS011;23341;50.296;18.960;2024-03-23T12:12:10;4.15;;;3.80;;
37485;SDS011;23341;50.296;18.960;2024-03-23T12:14:40;7.63;;;2.80;;
37485;SDS011;23341;50.296;18.960;2024-03-23T12:17:08;3.85;;;2.63;;
37485;SDS011;23341;50.296;18.960;2024-03-23T12:19:39;2.50;;;2.30;;
37485;SDS011;23341;50.296;18.960;2024-03-23T12:22:07;7.68;;;2.78;;
37485;SDS011;23341;50.296;18.960;2024-03-23T12:24:34;6.00;;;3.00;;
37485;SDS011;23341;50.296;18.960;2024-03-23T12:27:02;4.35;;;2.45;;
37485;SDS011;23341;50.296;18.960;2024-03-23T12:29:31;6.00;;;2.92;;
37485;SDS011;23341;50.296;18.960;2024-03-23T12:31:59;6.17;;;2.37;;
37485;SDS011;23341;50.296;18.960;2024-03-23T12:34:25;2.80;;;2.33;;
37485;SDS011;23341;50.296;18.960;2024-03-23T12:36:53;2.20;;;2.00;;
37485;SDS011;23341;50.296;18.960;2024-03-23T12:39:19;4.80;;;2.42;;
37485;SDS011;23341;50.296;18.960;2024-03-23T12:41:47;3.88;;;2.53;;
37485;SDS011;23341;50.296;18.960;2024-03-23T12:44:27;2.20;;;2.00;;
37485;SDS011;23341;50.296;18.960;2024-03-23T12:46:56;8.02;;;2.97;;
37485;SDS011;23341;50.296;18.960;2024-03-23T12:49:22;5.70;;;2.55;;
37485;SDS011;23341;50.296;18.960;2024-03-23T12:51:53;2.08;;;1.90;;
37485;SDS011;23341;50.296;18.960;2024-03-23T12:54:20;6.72;;;3.17;;
37485;SDS011;23341;50.296;18.960;2024-03-23T12:56:48;2.30;;;2.10;;
37485;SDS011;23341;50.296;18.960;2024-03-23T12:59:15;2.80;;;2.10;;
37485;SDS011;23341;50.296;18.960;2024-03-23T13:01:44;5.15;;;2.03;;
37485;SDS011;23341;50.296;18.960;2024-03-23T13:04:11;7.70;;;2.05;;
37485;SDS011;23341;50.296;18.960;2024-03-23T13:06:40;3.10;;;2.40;;
37485;SDS011;23341;50.296;18.960;2024-03-23T13:09:06;4.53;;;1.88;;
37485;SDS011;23341;50.296;18.960;2024-03-23T13:11:33;5.20;;;2.05;;
37485;SDS011;23341;50.296;18.960;2024-03-23T13:14:00;3.35;;;1.80;;
37485;SDS011;23341;50.296;18.960;2024-03-23T13:16:27;3.85;;;2.10;;
37485;SDS011;23341;50.296;18.960;2024-03-23T13:18:53;2.75;;;2.35;;
37485;SDS011;23341;50.296;18.960;2024-03-23T13:21:22;5.30;;;2.03;;
37485;SDS011;23341;50.296;18.960;2024-03-23T13:23:48;6.35;;;2.40;;
37485;SDS011;23341;50.296;18.960;2024-03-23T13:26:16;2.22;;;2.00;;
37485;SDS011;23341;50.296;18.960;2024-03-23T13:28:43;15.73;;;10.52;;
37485;SDS011;23341;50.296;18.960;2024-03-23T13:31:11;5.38;;;2.35;;
37485;SDS011;23341;50.296;18.960;2024-03-23T13:33:37;6.18;;;2.53;;
37485;SDS011;23341;50.296;18.960;2024-03-23T13:36:05;3.88;;;3.15;;
37485;SDS011;23341;50.296;18.960;2024-03-23T13:38:34;4.75;;;2.67;;
37485;SDS011;23341;50.296;18.960;2024-03-23T13:41:01;23.97;;;4.73;;
37485;SDS011;23341;50.296;18.960;2024-03-23T13:43:29;30.15;;;7.35;;
37485;SDS011;23341;50.296;18.960;2024-03-23T13:45:57;11.73;;;7.20;;
37485;SDS011;23341;50.296;18.960;2024-03-23T13:48:25;15.90;;;7.97;;
37485;SDS011;23341;50.296;18.960;2024-03-23T13:50:58;5.07;;;3.70;;
37485;SDS011;23341;50.296;18.960;2024-03-23T13:53:24;11.75;;;8.95;;
37485;SDS011;23341;50.296;18.960;2024-03-23T13:55:54;2.95;;;2.67;;
37485;SDS011;23341;50.296;18.960;2024-03-23T13:58:20;13.02;;;7.22;;
37485;SDS011;23341;50.296;18.960;2024-03-23T14:00:49;6.40;;;4.00;;
37485;SDS011;23341;50.296;18.960;2024-03-23T14:03:15;5.93;;;4.38;;
37485;SDS011;23341;50.296;18.960;2024-03-23T14:05:45;5.40;;;2.70;;
37485;SDS011;23341;50.296;18.960;2024-03-23T14:08:12;4.30;;;3.20;;
37485;SDS011;23341;50.296;18.960;2024-03-23T14:10:40;5.00;;;3.38;;
37485;SDS011;23341;50.296;18.960;2024-03-23T14:13:08;6.97;;;3.97;;
37485;SDS011;23341;50.296;18.960;2024-03-23T14:15:36;11.07;;;7.17;;
37485;SDS011;23341;50.296;18.960;2024-03-23T14:18:02;16.15;;;10.57;;
37485;SDS011;23341;50.296;18.960;2024-03-23T14:20:30;8.07;;;4.43;;
37485;SDS011;23341;50.296;18.960;2024-03-23T14:22:56;7.15;;;5.15;;
37485;SDS011;23341;50.296;18.960;2024-03-23T14:25:24;5.75;;;4.95;;
37485;SDS011;23341;50.296;18.960;2024-03-23T14:27:52;7.90;;;6.43;;
37485;SDS011;23341;50.296;18.960;2024-03-23T14:30:21;12.70;;;8.85;;
37485;SDS011;23341;50.296;18.960;2024-03-23T14:32:48;11.45;;;8.68;;
37485;SDS011;23341;50.296;18.960;2024-03-23T14:35:15;10.00;;;8.85;;
37485;SDS011;23341;50.296;18.960;2024-03-23T14:37:41;9.40;;;8.20;;
37485;SDS011;23341;50.296;18.960;2024-03-23T14:40:09;9.43;;;7.07;;
37485;SDS011;23341;50.296;18.960;2024-03-23T14:42:38;14.35;;;8.73;;
37485;SDS011;23341;50.296;18.960;2024-03-23T14:45:06;14.63;;;9.23;;
37485;SDS011;23341;50.296;18.960;2024-03-23T14:47:34;20.35;;;13.20;;
37485;SDS011;23341;50.296;18.960;2024-03-23T14:50:01;11.53;;;8.43;;
37485;SDS011;23341;50.296;18.960;2024-03-23T14:52:28;15.82;;;10.68;;
37485;SDS011;23341;50.296;18.960;2024-03-23T14:54:56;19.65;;;10.80;;
37485;SDS011;23341;50.296;18.960;2024-03-23T14:57:22;21.15;;;13.10;;
37485;SDS011;23341;50.296;18.960;2024-03-23T14:59:49;20.70;;;14.95;;
37485;SDS011;23341;50.296;18.960;2024-03-23T15:02:17;28.13;;;20.17;;
37485;SDS011;23341;50.296;18.960;2024-03-23T15:04:46;22.20;;;17.83;;
37485;SDS011;23341;50.296;18.960;2024-03-23T15:07:12;18.70;;;13.82;;
37485;SDS011;23341;50.296;18.960;2024-03-23T15:09:40;12.63;;;9.30;;
37485;SDS011;23341;50.296;18.960;2024-03-23T15:12:06;16.00;;;10.02;;
37485;SDS011;23341;50.296;18.960;2024-03-23T15:14:34;14.73;;;8.32;;
37485;SDS011;23341;50.296;18.960;2024-03-23T15:17:00;11.15;;;8.27;;
37485;SDS011;23341;50.296;18.960;2024-03-23T15:19:32;15.32;;;8.52;;
37485;SDS011;23341;50.296;18.960;2024-03-23T15:22:00;13.68;;;8.02;;